Columbus Metropolitan Airport
KCSG : now visible

Airfield :











YOU CAN JOIN US ON...

 
LOGIN :

Register | Disclaimer

   EN    FR    IT 

 









Legend :    VFR   Marginal VFR   IFR   Intensive IFR   Very Intensive IFR
Visi :
Ceiling :
>= 8 km
>= 3000ft
5 to 8 km
1000 to 3000 ft
1500m to 5 km
500 to 1000 ft
800 to 1500m
200 to 500 ft
< 800m
< 200 ft
Symbols :   Thunderstorms  Fog  Heavy snow  Heavy precipitations  Wind > 20 kt






- Airport Elevation : 397 ft
- IATA code : CSG


KCSG - Columbus Metropolitan

CURRENT METAR :
  • 291751Z 00000KT 10SM OVC028 16/09 A3023 RMK AO2 SLP237 T01560089 10156 20056 58011

EXPIRED METARs :
  • 291739Z 00000KT 10SM BKN028 15/08 A3024 RMK AO2 T01500083
  • 291718Z 00000KT 10SM SCT015 15/08 A3025 RMK AO2 T01500078
  • 291651Z 00000KT 10SM OVC015 14/07 A3026 RMK AO2 SLP247 T01390072
  • 291551Z 08003KT 10SM SCT012 BKN017 OVC028 11/06 A3027 RMK AO2 SLP251 T01110056

TAF KCSG
Valid from the 29 at 18:00 until the 30 at 18:00 UTC


291741Z 2918/3018 12003KT P6SM BKN015 BKN020
TEMPO 2921/2924 4SM -SHRA BR OVC007
FM300000 11005KT 4SM -RA BR OVC007
FM300600 08004KT 2SM -SHRA BR OVC004
PROB30 3010/3014 3/4SM SHRA BR OVC002
FM301500 30003KT 1SM -SHRA BR OVC004
KZTL FIR / North America



MET'MAP, your aeronautical weather chart ! - Copyright ORBIFLY December 2007 - Disclaimer

ORBIFLY MET'MAP TEAM :

Programming & Development : Alexandra Zaïnal
Original concept : Baudouin d'Aumeries
Technical & hardware support : Manuel Goepfert
Assistance : Marc-Olivier Méhu




SOURCES & CREDITS :

   NOAA       Earth
Advisory